Time;durP1;ratioP1;P1;durP2;ratioP2;P2;SDS_P1;SDS_P2;PMS_P1;PMS_P2;Temp;Humidity;BMP_temperature;BMP_pressure;BME280_temperature;BME280_humidity;BME280_pressure;Samples;Min_cycle;Max_cycle;Signal;HPM_P1;HPM_P2
2021/05/21 00:02:25;;;;;;;15.40;14.27;;;24.00;74.40;;;;;;3559188;40;20496;-53
2021/05/21 00:04:52;;;;;;;13.63;12.73;;;24.00;74.50;;;;;;3558594;40;21257;-52
2021/05/21 00:07:19;;;;;;;13.77;12.97;;;24.00;74.40;;;;;;3568069;40;20481;-54
2021/05/21 00:09:45;;;;;;;13.50;12.70;;;24.00;74.50;;;;;;3568152;40;20514;-52
2021/05/21 00:12:12;;;;;;;15.67;14.37;;;24.00;74.50;;;;;;3567036;40;20877;-53
2021/05/21 00:14:38;;;;;;;14.87;13.80;;;24.00;74.50;;;;;;3567466;40;20478;-52
2021/05/21 00:17:05;;;;;;;13.73;12.73;;;24.00;74.60;;;;;;3567639;40;20571;-54
2021/05/21 00:19:32;;;;;;;14.13;13.10;;;24.00;74.60;;;;;;3567956;40;20993;-52
2021/05/21 00:22:00;;;;;;;13.60;12.80;;;24.00;74.60;;;;;;3567540;40;20481;-51
2021/05/21 00:24:27;;;;;;;14.60;13.73;;;24.00;74.60;;;;;;3568766;40;20540;-52
2021/05/21 00:26:53;;;;;;;13.53;12.73;;;24.00;74.50;;;;;;3567200;40;20474;-53
2021/05/21 00:29:20;;;;;;;13.60;12.80;;;24.00;74.60;;;;;;3568336;40;20483;-52
2021/05/21 00:32:06;;;;;;;14.10;13.23;;;24.00;74.50;;;;;;3567787;40;20780;-52
2021/05/21 00:34:45;;;;;;;13.87;13.07;;;24.00;74.60;;;;;;3567656;40;20482;-52
2021/05/21 00:37:15;;;;;;;14.87;13.57;;;24.00;74.70;;;;;;3567482;40;20489;-51
2021/05/21 00:39:44;;;;;;;13.60;12.40;;;24.00;74.60;;;;;;3568185;40;20486;-52
2021/05/21 00:42:12;;;;;;;14.37;13.43;;;24.00;74.70;;;;;;3568180;40;20481;-53
2021/05/21 00:44:39;;;;;;;14.00;13.00;;;23.90;74.60;;;;;;3567923;40;20482;-51
2021/05/21 00:47:07;;;;;;;13.80;12.73;;;23.90;74.60;;;;;;3567372;40;20482;-53
2021/05/21 00:49:36;;;;;;;13.77;12.87;;;23.90;74.60;;;;;;3567357;40;20579;-56
2021/05/21 00:52:23;;;;;;;13.47;12.77;;;23.90;74.60;;;;;;3568184;40;20483;-56
2021/05/21 00:54:52;;;;;;;14.73;13.67;;;23.90;74.60;;;;;;3558603;40;20475;-55
2021/05/21 00:57:22;;;;;;;14.57;13.57;;;24.00;74.70;;;;;;3558799;40;20502;-52
2021/05/21 00:59:59;;;;;;;13.87;13.03;;;23.90;74.60;;;;;;3566556;40;20720;-54
2021/05/21 01:02:31;;;;;;;13.97;13.10;;;23.90;74.60;;;;;;3566189;40;20492;-54
2021/05/21 01:05:20;;;;;;;14.30;13.30;;;23.90;74.60;;;;;;3566714;40;20485;-53
2021/05/21 01:07:49;;;;;;;14.30;13.47;;;23.90;74.60;;;;;;3567424;40;20485;-53
2021/05/21 01:10:19;;;;;;;14.70;13.77;;;23.90;74.60;;;;;;3567477;40;20494;-53
2021/05/21 01:12:49;;;;;;;13.93;12.93;;;23.90;74.70;;;;;;3567593;40;20485;-54
2021/05/21 01:15:21;;;;;;;13.50;12.80;;;23.90;74.60;;;;;;3566698;40;20479;-52
2021/05/21 01:17:57;;;;;;;13.13;12.40;;;23.90;74.70;;;;;;3567921;40;20475;-52
2021/05/21 01:20:27;;;;;;;14.10;13.00;;;23.90;74.70;;;;;;3568125;40;20533;-52
2021/05/21 01:22:58;;;;;;;14.05;13.05;;;23.90;74.70;;;;;;3568259;40;20487;-51
2021/05/21 01:25:27;;;;;;;14.47;13.23;;;23.90;74.70;;;;;;3566612;40;20550;-53
2021/05/21 01:27:56;;;;;;;14.40;13.50;;;23.90;74.70;;;;;;3568028;40;20483;-54
2021/05/21 01:30:25;;;;;;;14.40;13.60;;;23.90;74.70;;;;;;3566636;40;20498;-54
2021/05/21 01:32:53;;;;;;;13.93;13.13;;;23.90;74.70;;;;;;3557908;40;20215;-52
2021/05/21 01:35:23;;;;;;;13.90;13.05;;;23.90;74.70;;;;;;3566981;40;20483;-55
2021/05/21 01:37:54;;;;;;;16.13;12.90;;;23.90;74.70;;;;;;3566919;40;20318;-52
2021/05/21 01:40:24;;;;;;;14.47;13.47;;;23.90;74.70;;;;;;3567453;40;20571;-55
2021/05/21 01:42:52;;;;;;;13.57;12.87;;;23.90;74.70;;;;;;3567826;40;20854;-53
2021/05/21 01:45:19;;;;;;;14.37;13.30;;;23.90;74.70;;;;;;3568028;40;20487;-51
2021/05/21 01:47:48;;;;;;;14.80;13.80;;;23.90;74.70;;;;;;3567942;40;20707;-52
2021/05/21 01:50:18;;;;;;;14.43;13.57;;;23.90;75.40;;;;;;3566237;40;20892;-55
2021/05/21 01:52:46;;;;;;;13.93;13.17;;;23.90;74.70;;;;;;3566156;40;20509;-54
2021/05/21 01:55:14;;;;;;;13.90;12.80;;;23.90;74.70;;;;;;3566177;40;20522;-54
2021/05/21 01:58:06;;;;;;;13.10;12.30;;;23.90;74.80;;;;;;3567082;40;20228;-55
2021/05/21 02:00:40;;;;;;;14.23;13.37;;;23.90;74.70;;;;;;3568141;40;20497;-52
2021/05/21 02:03:10;;;;;;;13.20;12.50;;;23.90;74.70;;;;;;3567556;40;20753;-51
2021/05/21 02:05:39;;;;;;;13.27;12.57;;;23.90;74.70;;;;;;3566607;40;20477;-52
2021/05/21 02:08:09;;;;;;;14.27;13.27;;;23.90;74.80;;;;;;3567531;40;20533;-51
2021/05/21 02:10:41;;;;;;;13.10;12.50;;;23.90;74.70;;;;;;3559211;40;20863;-52
2021/05/21 02:13:13;;;;;;;14.33;13.50;;;23.90;74.70;;;;;;3567493;40;20481;-53
2021/05/21 02:15:41;;;;;;;13.90;12.90;;;23.90;74.80;;;;;;3567577;40;20488;-51
2021/05/21 02:18:08;;;;;;;13.80;13.00;;;23.90;74.70;;;;;;3558525;40;20486;-51
2021/05/21 02:20:36;;;;;;;13.50;12.60;;;23.80;74.60;;;;;;3557036;40;20490;-51
2021/05/21 02:23:05;;;;;;;14.27;13.37;;;23.90;74.80;;;;;;3556513;40;20483;-52
2021/05/21 02:25:36;;;;;;;13.00;12.40;;;23.90;74.80;;;;;;3557349;40;20525;-53
2021/05/21 02:28:06;;;;;;;13.63;12.63;;;23.80;74.70;;;;;;3556927;40;20476;-52
2021/05/21 02:30:34;;;;;;;13.13;12.43;;;23.80;74.70;;;;;;3556677;40;20568;-51
2021/05/21 02:33:01;;;;;;;13.33;12.63;;;23.80;74.60;;;;;;3556629;40;20491;-52
2021/05/21 02:35:29;;;;;;;13.13;12.43;;;23.80;74.70;;;;;;3556461;40;20475;-53
2021/05/21 02:37:55;;;;;;;14.30;13.20;;;23.80;74.70;;;;;;3557422;40;20478;-55
2021/05/21 02:40:22;;;;;;;14.80;13.50;;;23.80;74.70;;;;;;3547499;40;20826;-51
2021/05/21 02:42:51;;;;;;;13.33;12.63;;;23.80;74.70;;;;;;3561228;40;20494;-51
2021/05/21 02:45:19;;;;;;;13.90;13.10;;;23.80;74.60;;;;;;3567277;40;20705;-51
2021/05/21 02:47:48;;;;;;;13.37;12.67;;;23.80;74.70;;;;;;3566746;40;20500;-55
2021/05/21 02:50:16;;;;;;;13.05;12.25;;;23.80;74.70;;;;;;3566597;40;20556;-52
2021/05/21 02:52:45;;;;;;;13.47;12.67;;;23.80;74.70;;;;;;3566077;40;20306;-52
2021/05/21 02:55:14;;;;;;;14.20;13.00;;;23.80;74.70;;;;;;3566765;40;20518;-53
2021/05/21 02:57:42;;;;;;;13.63;12.90;;;23.80;74.70;;;;;;3567335;40;20579;-52
2021/05/21 03:00:13;;;;;;;13.27;12.27;;;23.80;74.70;;;;;;3565728;40;20544;-56
2021/05/21 03:02:41;;;;;;;13.33;12.53;;;23.80;75.40;;;;;;3557589;40;20518;-53
2021/05/21 03:05:11;;;;;;;14.13;13.33;;;23.80;74.70;;;;;;3565687;40;20531;-54
2021/05/21 03:07:39;;;;;;;14.03;13.13;;;23.80;74.70;;;;;;3566506;40;20474;-51
2021/05/21 03:10:06;;;;;;;13.23;12.53;;;23.80;74.70;;;;;;3565943;40;20879;-52
2021/05/21 03:12:34;;;;;;;14.47;13.57;;;23.80;74.70;;;;;;3566402;40;20558;-51
2021/05/21 03:15:00;;;;;;;14.00;13.20;;;23.80;74.80;;;;;;3567903;40;20535;-53
2021/05/21 03:17:27;;;;;;;13.77;12.93;;;23.80;74.70;;;;;;3567469;40;20478;-52
2021/05/21 03:19:54;;;;;;;15.03;14.00;;;23.80;74.70;;;;;;3567420;40;20499;-51
2021/05/21 03:22:21;;;;;;;15.70;14.90;;;23.80;74.80;;;;;;3566376;40;20476;-53
2021/05/21 03:24:48;;;;;;;13.93;13.33;;;23.80;74.80;;;;;;3566547;40;20724;-52
2021/05/21 03:27:14;;;;;;;14.63;13.93;;;23.80;74.70;;;;;;3566710;40;20492;-52
2021/05/21 03:29:41;;;;;;;14.60;13.80;;;23.80;74.70;;;;;;3566388;40;20486;-53
2021/05/21 03:32:11;;;;;;;13.87;13.10;;;23.80;75.50;;;;;;3567009;40;20466;-52
2021/05/21 03:34:37;;;;;;;14.47;13.63;;;23.80;74.70;;;;;;3566678;40;21209;-51
2021/05/21 03:37:04;;;;;;;14.87;14.07;;;23.80;74.70;;;;;;3566833;40;20477;-51
2021/05/21 03:39:32;;;;;;;14.47;13.77;;;23.90;74.80;;;;;;3557083;40;20478;-51
2021/05/21 03:41:58;;;;;;;14.27;13.57;;;23.90;74.70;;;;;;3557808;40;20485;-52
2021/05/21 03:44:25;;;;;;;14.73;13.83;;;23.90;74.70;;;;;;3557504;40;20477;-55
2021/05/21 03:46:51;;;;;;;14.50;13.80;;;23.90;74.60;;;;;;3558042;40;20699;-52
2021/05/21 03:49:18;;;;;;;14.35;13.60;;;23.90;74.60;;;;;;3557453;40;20218;-51
2021/05/21 03:51:45;;;;;;;14.97;14.07;;;24.00;74.60;;;;;;3558393;40;20222;-53
2021/05/21 03:54:12;;;;;;;15.27;14.27;;;24.00;74.60;;;;;;3539946;40;20494;-54
2021/05/21 03:56:39;;;;;;;14.90;14.07;;;24.00;74.50;;;;;;3556282;40;20244;-54
2021/05/21 03:59:06;;;;;;;14.30;13.50;;;24.10;74.50;;;;;;3556478;40;20824;-51
2021/05/21 04:01:32;;;;;;;14.07;13.37;;;24.00;74.30;;;;;;3556518;40;20479;-53
2021/05/21 04:03:59;;;;;;;13.87;13.10;;;24.10;74.40;;;;;;3556008;40;20922;-54
2021/05/21 04:06:26;;;;;;;14.40;13.48;;;24.10;74.30;;;;;;3556090;40;20503;-52
2021/05/21 04:08:53;;;;;;;14.53;13.80;;;24.10;74.30;;;;;;3556570;40;20472;-51
2021/05/21 04:11:19;;;;;;;14.63;13.83;;;24.20;74.30;;;;;;3555778;40;20475;-53
2021/05/21 04:13:46;;;;;;;14.10;13.40;;;24.20;74.20;;;;;;3556958;40;20498;-53
2021/05/21 04:16:13;;;;;;;14.40;13.70;;;24.20;74.10;;;;;;3555776;40;20653;-54
2021/05/21 04:18:40;;;;;;;14.37;13.67;;;24.20;74.00;;;;;;3556375;40;20468;-54
2021/05/21 04:21:07;;;;;;;15.50;14.70;;;24.30;74.10;;;;;;3554603;40;20483;-53
2021/05/21 04:23:38;;;;;;;14.40;13.67;;;24.30;74.00;;;;;;3555166;40;20486;-52
2021/05/21 04:26:04;;;;;;;15.17;14.07;;;24.30;73.90;;;;;;3554921;40;20477;-52
2021/05/21 04:28:31;;;;;;;14.90;14.10;;;24.30;73.90;;;;;;3554500;40;20577;-55
2021/05/21 04:30:58;;;;;;;14.30;13.50;;;24.40;73.90;;;;;;3555901;40;20465;-53
2021/05/21 04:33:25;;;;;;;14.63;13.90;;;24.40;73.80;;;;;;3554093;40;20481;-54
2021/05/21 04:35:51;;;;;;;13.93;13.23;;;24.40;73.80;;;;;;3553412;40;20492;-55
2021/05/21 04:38:18;;;;;;;14.82;14.05;;;24.40;73.70;;;;;;3554407;40;20492;-52
2021/05/21 04:40:45;;;;;;;14.00;13.30;;;24.50;73.70;;;;;;3554488;40;20245;-54
2021/05/21 04:43:11;;;;;;;14.17;13.43;;;24.50;73.60;;;;;;3551827;40;20586;-55
2021/05/21 04:45:38;;;;;;;14.80;14.00;;;24.50;73.50;;;;;;3552175;40;20484;-52
2021/05/21 04:48:07;;;;;;;14.30;13.60;;;24.50;73.40;;;;;;3552767;40;20576;-53
2021/05/21 04:50:33;;;;;;;14.35;13.65;;;24.60;73.40;;;;;;3552112;40;20609;-54
2021/05/21 04:53:00;;;;;;;14.00;13.40;;;24.60;73.40;;;;;;3552391;40;20262;-52
2021/05/21 04:55:26;;;;;;;14.07;13.37;;;24.60;73.30;;;;;;3553154;40;20483;-55
2021/05/21 04:57:53;;;;;;;13.50;12.90;;;24.60;73.20;;;;;;3552927;40;20504;-56
2021/05/21 05:00:20;;;;;;;13.20;12.60;;;24.60;73.20;;;;;;3552259;40;20487;-55
2021/05/21 05:02:47;;;;;;;14.00;13.30;;;24.60;73.20;;;;;;3535260;40;20246;-53
2021/05/21 05:05:14;;;;;;;13.80;13.10;;;24.70;73.20;;;;;;3552717;40;20541;-55
2021/05/21 05:07:41;;;;;;;14.00;13.27;;;24.70;73.10;;;;;;3551049;40;20480;-53
2021/05/21 05:10:09;;;;;;;13.73;13.13;;;24.70;73.10;;;;;;3548627;40;20481;-55
2021/05/21 05:12:35;;;;;;;13.48;12.77;;;24.70;73.00;;;;;;3549326;40;20495;-54
2021/05/21 05:15:02;;;;;;;14.97;14.10;;;24.80;73.10;;;;;;3549719;40;20234;-53
2021/05/21 05:17:29;;;;;;;13.48;12.90;;;24.80;73.10;;;;;;3549988;40;20479;-54
2021/05/21 05:19:55;;;;;;;14.13;13.43;;;24.80;70.70;;;;;;3550103;40;20351;-53
2021/05/21 05:22:23;;;;;;;14.70;13.98;;;24.70;63.40;;;;;;3548448;40;20475;-53
2021/05/21 05:24:49;;;;;;;14.15;13.45;;;24.50;61.10;;;;;;3546736;40;20245;-53
2021/05/21 05:27:16;;;;;;;14.13;13.47;;;24.30;60.40;;;;;;3547291;40;20456;-55
2021/05/21 05:29:45;;;;;;;14.23;13.23;;;24.10;59.90;;;;;;3547759;40;20568;-51
2021/05/21 05:32:12;;;;;;;15.23;14.23;;;23.90;59.90;;;;;;3555140;40;20865;-55
2021/05/21 05:34:38;;;;;;;14.07;13.47;;;23.80;60.60;;;;;;3554622;40;21132;-53
2021/05/21 05:37:05;;;;;;;13.70;13.00;;;23.70;61.50;;;;;;3555458;40;20543;-53
2021/05/21 05:39:32;;;;;;;14.13;13.13;;;23.60;61.20;;;;;;3542986;40;20235;-53
2021/05/21 05:41:59;;;;;;;14.37;13.40;;;23.60;61.40;;;;;;3546851;40;20508;-53
2021/05/21 05:44:25;;;;;;;14.87;13.90;;;23.50;61.30;;;;;;3545018;40;20474;-54
2021/05/21 05:46:52;;;;;;;15.17;14.30;;;23.40;61.30;;;;;;3544688;40;21102;-55
2021/05/21 05:49:19;;;;;;;14.37;13.57;;;23.30;62.90;;;;;;3544558;40;20570;-54
2021/05/21 05:51:45;;;;;;;14.30;13.50;;;23.40;65.40;;;;;;3546284;40;20489;-54
2021/05/21 05:54:12;;;;;;;14.83;13.83;;;23.50;67.00;;;;;;3546394;40;20741;-54
2021/05/21 05:56:40;;;;;;;13.30;12.70;;;23.60;67.80;;;;;;3545113;40;20595;-55
2021/05/21 05:59:06;;;;;;;14.17;13.47;;;23.80;68.30;;;;;;3544142;40;20485;-55
2021/05/21 06:01:33;;;;;;;14.87;13.57;;;23.90;68.50;;;;;;3542410;40;20493;-53
2021/05/21 06:04:00;;;;;;;14.23;13.40;;;24.00;68.70;;;;;;3541387;40;20479;-53
2021/05/21 06:06:26;;;;;;;13.43;12.65;;;24.10;69.00;;;;;;3543967;40;20489;-51
2021/05/21 06:08:53;;;;;;;14.20;13.10;;;24.20;69.20;;;;;;3540274;40;20245;-54
2021/05/21 06:11:19;;;;;;;14.30;13.30;;;24.30;69.30;;;;;;3541175;40;20479;-53
2021/05/21 06:13:47;;;;;;;13.13;12.53;;;24.40;69.40;;;;;;3542694;40;20480;-53
2021/05/21 06:16:14;;;;;;;13.97;13.07;;;24.40;69.40;;;;;;3541160;40;20501;-55
2021/05/21 06:18:40;;;;;;;13.70;13.00;;;24.50;69.40;;;;;;3539743;40;21246;-52
2021/05/21 06:21:07;;;;;;;13.93;13.00;;;24.60;69.60;;;;;;3540574;40;20491;-54
2021/05/21 06:23:33;;;;;;;14.37;13.47;;;24.60;69.60;;;;;;3532763;40;20479;-52
2021/05/21 06:26:12;;;;;;;15.67;13.00;;;24.60;69.60;;;;;;3542827;40;20499;-53
2021/05/21 06:28:41;;;;;;;13.43;12.63;;;24.70;69.60;;;;;;3541089;40;20560;-52
2021/05/21 06:31:08;;;;;;;13.83;12.73;;;24.70;69.60;;;;;;3541513;40;20950;-52
2021/05/21 06:33:35;;;;;;;13.97;12.87;;;24.80;69.70;;;;;;3532440;40;20955;-53
2021/05/21 06:36:04;;;;;;;13.63;12.80;;;24.80;69.70;;;;;;3541146;40;20517;-52
2021/05/21 06:38:31;;;;;;;13.82;13.13;;;24.80;69.70;;;;;;3542258;40;21187;-55
2021/05/21 06:40:58;;;;;;;12.80;12.17;;;24.80;69.70;;;;;;3543160;40;20237;-55
2021/05/21 06:43:28;;;;;;;14.17;13.17;;;24.90;69.80;;;;;;3543208;40;20493;-54
2021/05/21 06:45:54;;;;;;;12.77;12.10;;;24.90;69.80;;;;;;3540613;40;20489;-52
2021/05/21 06:48:26;;;;;;;13.20;12.40;;;24.80;69.70;;;;;;3540581;40;20503;-54
2021/05/21 06:50:53;;;;;;;12.83;12.03;;;24.90;69.90;;;;;;3531072;40;20511;-52
2021/05/21 06:53:21;;;;;;;13.67;12.90;;;24.90;69.90;;;;;;3540986;40;20476;-52
2021/05/21 06:55:48;;;;;;;12.40;11.70;;;24.90;69.90;;;;;;3541046;40;20481;-52
2021/05/21 06:58:15;;;;;;;13.43;12.73;;;24.90;70.00;;;;;;3539820;40;20488;-54
2021/05/21 07:00:42;;;;;;;13.23;12.23;;;24.90;70.00;;;;;;3540601;40;20510;-57
2021/05/21 07:03:09;;;;;;;14.07;13.17;;;24.90;70.00;;;;;;3539315;40;20500;-53
2021/05/21 07:05:37;;;;;;;13.23;12.43;;;24.90;70.10;;;;;;3539203;40;20489;-52
2021/05/21 07:08:04;;;;;;;13.27;12.57;;;25.00;70.20;;;;;;3536946;40;20927;-56
2021/05/21 07:10:31;;;;;;;13.77;12.80;;;25.00;70.20;;;;;;3537796;40;20492;-53
2021/05/21 07:13:07;;;;;;;12.77;12.17;;;25.00;70.20;;;;;;3537863;40;21398;-52
2021/05/21 07:15:33;;;;;;;13.53;12.63;;;25.00;70.20;;;;;;3538330;40;21143;-53
2021/05/21 07:18:00;;;;;;;13.50;12.80;;;25.00;70.20;;;;;;3539130;40;20472;-52
2021/05/21 07:20:27;;;;;;;12.87;12.27;;;25.00;70.20;;;;;;3540224;40;20482;-53
2021/05/21 07:22:54;;;;;;;14.10;13.30;;;25.00;70.20;;;;;;3542707;40;20494;-54
2021/05/21 07:25:21;;;;;;;13.33;12.53;;;25.00;70.20;;;;;;3541932;40;20908;-55
2021/05/21 07:27:48;;;;;;;13.40;12.50;;;25.00;70.20;;;;;;3539332;40;20496;-56
2021/05/21 07:30:16;;;;;;;13.70;12.80;;;25.00;70.30;;;;;;3538420;40;20484;-52
2021/05/21 07:32:42;;;;;;;12.90;12.30;;;25.00;70.30;;;;;;3539401;40;20502;-55
2021/05/21 07:35:10;;;;;;;12.20;11.63;;;25.00;70.30;;;;;;3539138;40;20474;-52
2021/05/21 07:37:37;;;;;;;12.90;12.00;;;25.00;70.40;;;;;;3539474;40;20251;-54
2021/05/21 07:40:06;;;;;;;12.83;12.23;;;25.00;70.40;;;;;;3538611;40;20490;-52
2021/05/21 07:42:33;;;;;;;12.50;11.70;;;25.00;70.40;;;;;;3540418;40;20585;-52
2021/05/21 07:44:59;;;;;;;13.20;12.50;;;25.00;70.40;;;;;;3543144;40;20486;-52
2021/05/21 07:47:26;;;;;;;13.00;12.30;;;25.00;70.40;;;;;;3539699;40;20514;-53
2021/05/21 07:49:54;;;;;;;13.03;12.43;;;25.00;70.40;;;;;;3540009;40;20486;-54
2021/05/21 07:52:20;;;;;;;13.30;12.57;;;25.00;70.50;;;;;;3538685;40;20494;-53
2021/05/21 07:54:47;;;;;;;13.20;12.40;;;25.00;70.50;;;;;;3540064;40;20585;-55
2021/05/21 07:57:14;;;;;;;12.20;11.60;;;25.00;70.50;;;;;;3540796;40;20551;-53
2021/05/21 07:59:41;;;;;;;13.07;12.37;;;25.00;70.60;;;;;;3539762;40;20583;-52
2021/05/21 08:02:08;;;;;;;12.47;11.87;;;25.00;70.50;;;;;;3540982;40;20511;-54
2021/05/21 08:04:34;;;;;;;12.10;11.37;;;25.00;70.70;;;;;;3531888;40;20486;-56
2021/05/21 08:07:01;;;;;;;12.00;11.20;;;25.00;70.70;;;;;;3538838;40;20495;-53
2021/05/21 08:09:28;;;;;;;12.60;11.90;;;25.00;70.70;;;;;;3538810;40;20599;-53
2021/05/21 08:11:54;;;;;;;12.35;11.75;;;24.90;70.60;;;;;;3540581;40;20544;-55
2021/05/21 08:14:22;;;;;;;12.60;11.90;;;24.90;70.70;;;;;;3539955;40;20235;-57
2021/05/21 08:16:48;;;;;;;13.07;12.20;;;24.90;70.60;;;;;;3542413;40;20882;-55
2021/05/21 08:19:15;;;;;;;12.43;11.80;;;24.90;70.70;;;;;;3539828;40;20491;-53
2021/05/21 08:21:42;;;;;;;11.97;11.47;;;24.90;70.70;;;;;;3538614;40;20832;-57
2021/05/21 08:24:10;;;;;;;13.10;12.30;;;24.90;70.70;;;;;;3540856;40;20508;-54
2021/05/21 08:26:36;;;;;;;12.00;11.40;;;24.90;70.80;;;;;;3541330;40;20542;-55
2021/05/21 08:29:03;;;;;;;12.10;11.30;;;24.90;70.80;;;;;;3540447;40;20666;-54
2021/05/21 08:31:31;;;;;;;12.27;11.67;;;24.90;70.80;;;;;;3540803;40;20491;-55
2021/05/21 08:33:57;;;;;;;12.20;11.70;;;24.90;70.80;;;;;;3540377;40;20485;-53
2021/05/21 08:36:24;;;;;;;11.40;10.90;;;24.90;70.80;;;;;;3541203;40;20490;-54
2021/05/21 08:38:52;;;;;;;11.73;11.13;;;24.90;70.90;;;;;;3540374;40;20493;-52
2021/05/21 08:41:23;;;;;;;11.10;10.60;;;24.90;70.90;;;;;;3538618;40;20485;-56
2021/05/21 08:43:51;;;;;;;12.50;11.80;;;24.90;70.90;;;;;;3538203;40;20485;-55
2021/05/21 08:46:19;;;;;;;12.37;11.67;;;24.90;70.90;;;;;;3539336;40;20613;-55
2021/05/21 08:48:47;;;;;;;11.90;11.40;;;24.90;71.00;;;;;;3537949;40;20487;-54
2021/05/21 08:51:15;;;;;;;12.23;11.73;;;24.90;71.00;;;;;;3540586;40;20664;-54
2021/05/21 08:53:42;;;;;;;11.93;11.30;;;24.90;71.00;;;;;;3540580;40;20466;-53
2021/05/21 08:56:11;;;;;;;11.10;10.63;;;24.90;71.00;;;;;;3536088;40;20480;-56
2021/05/21 08:58:37;;;;;;;11.90;11.30;;;24.90;71.10;;;;;;3538642;40;20507;-54
2021/05/21 09:01:04;;;;;;;11.47;10.97;;;24.90;71.10;;;;;;3535928;40;20988;-54
2021/05/21 09:03:33;;;;;;;12.15;11.35;;;24.80;71.00;;;;;;3539247;40;20491;-55
2021/05/21 09:06:08;;;;;;;11.40;11.00;;;24.80;71.00;;;;;;3538301;40;20631;-55
2021/05/21 09:08:39;;;;;;;11.40;10.90;;;24.80;71.10;;;;;;3539407;40;20527;-54
2021/05/21 09:11:31;;;;;;;11.90;11.20;;;24.80;71.00;;;;;;3536497;40;20494;-53
2021/05/21 09:14:00;;;;;;;11.57;11.07;;;24.80;71.10;;;;;;3539636;40;20789;-53
2021/05/21 09:16:28;;;;;;;11.77;11.27;;;24.80;71.10;;;;;;3538458;40;20482;-53
2021/05/21 09:19:00;;;;;;;11.57;10.97;;;24.80;71.20;;;;;;3537826;40;20479;-56
2021/05/21 09:21:49;;;;;;;11.60;11.00;;;24.80;71.30;;;;;;3537575;40;20763;-54
2021/05/21 09:24:17;;;;;;;11.60;11.10;;;24.80;71.30;;;;;;3536604;40;20482;-55
2021/05/21 09:26:45;;;;;;;11.70;11.20;;;24.80;71.20;;;;;;3537057;40;20727;-54
2021/05/21 09:29:14;;;;;;;12.03;11.50;;;24.80;71.30;;;;;;3537109;40;20523;-53
2021/05/21 09:31:44;;;;;;;11.67;11.07;;;24.80;71.30;;;;;;3539886;40;20750;-55
2021/05/21 09:34:12;;;;;;;11.70;10.90;;;24.80;71.40;;;;;;3538825;40;20486;-52
2021/05/21 09:36:41;;;;;;;11.03;10.63;;;24.80;71.30;;;;;;3544244;40;20916;-56
2021/05/21 09:39:10;;;;;;;11.20;10.70;;;24.80;71.40;;;;;;3548188;40;20524;-55
2021/05/21 09:41:49;;;;;;;11.57;11.05;;;24.80;71.40;;;;;;3549067;40;21278;-54
2021/05/21 09:44:17;;;;;;;11.67;11.17;;;24.80;71.40;;;;;;3539629;40;20265;-52
2021/05/21 09:46:47;;;;;;;11.40;11.00;;;24.80;71.50;;;;;;3540137;40;20495;-55
2021/05/21 09:49:33;;;;;;;11.77;11.27;;;24.80;71.50;;;;;;3540702;40;20483;-55
2021/05/21 09:52:03;;;;;;;12.40;11.77;;;24.80;71.40;;;;;;3538826;40;20498;-54
2021/05/21 09:54:48;;;;;;;12.07;11.57;;;24.80;71.40;;;;;;3539801;40;20530;-54
2021/05/21 09:57:16;;;;;;;11.67;11.17;;;24.80;71.40;;;;;;3540392;40;20505;-53
2021/05/21 09:59:44;;;;;;;11.60;11.10;;;24.80;71.40;;;;;;3538351;40;20486;-54
2021/05/21 10:02:29;;;;;;;12.15;11.65;;;24.80;71.40;;;;;;3537716;40;20580;-55
2021/05/21 10:04:58;;;;;;;11.63;11.13;;;24.80;71.50;;;;;;3538353;40;20592;-56
2021/05/21 10:07:26;;;;;;;11.80;11.30;;;24.80;71.50;;;;;;3537819;40;20547;-52
2021/05/21 10:09:53;;;;;;;11.90;11.40;;;24.80;71.50;;;;;;3537852;40;20927;-53
2021/05/21 10:12:20;;;;;;;11.30;10.80;;;24.80;72.20;;;;;;3537221;40;20507;-55
2021/05/21 10:14:51;;;;;;;11.40;10.70;;;24.80;71.40;;;;;;3538171;40;20511;-56
2021/05/21 10:17:19;;;;;;;11.50;10.98;;;24.80;71.50;;;;;;3538993;40;20487;-55
2021/05/21 10:19:48;;;;;;;11.33;10.90;;;24.80;71.50;;;;;;3537857;40;20233;-51
2021/05/21 10:22:20;;;;;;;11.60;11.10;;;24.80;71.50;;;;;;3539794;40;21240;-53
2021/05/21 10:24:50;;;;;;;11.23;10.80;;;24.80;71.50;;;;;;3534785;40;20498;-55
2021/05/21 10:27:20;;;;;;;11.70;11.23;;;24.80;71.50;;;;;;3540322;40;20941;-55
2021/05/21 10:29:56;;;;;;;11.10;10.70;;;24.80;71.50;;;;;;3545468;40;20489;-56
2021/05/21 10:32:29;;;;;;;11.50;11.00;;;24.80;71.50;;;;;;3548918;40;20494;-53
2021/05/21 10:34:58;;;;;;;11.50;11.00;;;24.80;71.50;;;;;;3547049;40;20502;-55
2021/05/21 10:37:47;;;;;;;11.70;11.20;;;24.70;71.40;;;;;;3539734;40;20973;-55
2021/05/21 10:40:34;;;;;;;12.38;11.80;;;24.80;71.50;;;;;;3531872;40;20483;-53
2021/05/21 10:43:24;;;;;;;11.77;11.32;;;24.80;71.50;;;;;;3525816;40;20234;-54
2021/05/21 10:46:13;;;;;;;12.20;11.70;;;24.80;71.50;;;;;;3524682;40;20237;-52
2021/05/21 10:48:51;;;;;;;12.20;11.60;;;24.80;71.50;;;;;;3528198;40;20529;-56
2021/05/21 10:51:17;;;;;;;11.60;11.10;;;24.80;71.50;;;;;;3526237;40;20540;-55
2021/05/21 10:53:46;;;;;;;12.10;11.48;;;24.80;72.30;;;;;;3530703;40;20585;-56
2021/05/21 10:56:14;;;;;;;11.90;11.40;;;24.80;71.50;;;;;;3530438;40;20229;-54
2021/05/21 10:58:44;;;;;;;11.40;11.00;;;24.80;71.50;;;;;;3529877;40;20489;-53
2021/05/21 11:01:16;;;;;;;11.77;11.30;;;24.80;72.30;;;;;;3529281;40;20242;-56
2021/05/21 11:04:08;;;;;;;12.23;11.63;;;24.80;71.50;;;;;;3530587;40;21058;-53
2021/05/21 11:06:50;;;;;;;11.23;10.83;;;24.80;71.50;;;;;;3530351;40;21327;-55
2021/05/21 11:09:19;;;;;;;11.00;10.60;;;24.80;71.50;;;;;;3530383;40;20989;-55
2021/05/21 11:11:52;;;;;;;11.37;10.87;;;24.80;71.50;;;;;;3529797;40;20933;-56
2021/05/21 11:14:21;;;;;;;11.47;11.07;;;24.80;71.50;;;;;;3530459;40;20490;-55
2021/05/21 11:16:51;;;;;;;11.80;11.30;;;24.80;71.50;;;;;;3524058;40;20491;-55
2021/05/21 11:19:22;;;;;;;11.93;11.40;;;24.80;71.50;;;;;;3531055;40;20489;-52
2021/05/21 11:21:51;;;;;;;11.98;11.20;;;24.80;71.50;;;;;;3531695;40;20484;-55
2021/05/21 11:24:38;;;;;;;11.40;11.00;;;24.80;71.50;;;;;;3530133;40;20237;-55
2021/05/21 11:27:08;;;;;;;12.37;11.70;;;24.80;71.50;;;;;;3530055;40;20491;-52
2021/05/21 11:29:36;;;;;;;11.80;11.30;;;24.80;71.50;;;;;;3532395;40;20888;-54
2021/05/21 11:32:06;;;;;;;11.30;10.83;;;24.80;71.50;;;;;;3529274;40;20529;-56
2021/05/21 11:34:32;;;;;;;11.93;11.43;;;24.80;71.50;;;;;;3533409;40;20476;-54
2021/05/21 11:36:59;;;;;;;11.03;10.63;;;24.80;71.50;;;;;;3530066;40;21214;-52
2021/05/21 11:39:26;;;;;;;12.00;11.53;;;24.80;71.50;;;;;;3531463;40;20485;-54
2021/05/21 11:41:54;;;;;;;11.83;11.33;;;24.80;71.50;;;;;;3542297;40;20489;-55
2021/05/21 11:44:28;;;;;;;11.63;11.13;;;24.80;71.50;;;;;;3541151;40;20481;-53
2021/05/21 11:47:01;;;;;;;11.00;10.60;;;24.80;71.50;;;;;;3541414;40;20487;-53
2021/05/21 11:49:30;;;;;;;12.03;11.60;;;24.80;71.50;;;;;;3542049;40;20496;-56
2021/05/21 11:51:59;;;;;;;11.00;10.60;;;24.80;71.50;;;;;;3541745;40;20492;-55
2021/05/21 11:54:27;;;;;;;11.90;11.40;;;24.80;71.50;;;;;;3541856;40;20809;-55
2021/05/21 11:56:55;;;;;;;11.40;10.90;;;24.80;71.50;;;;;;3541995;40;20571;-55
2021/05/21 11:59:23;;;;;;;11.03;10.63;;;24.80;71.60;;;;;;3542723;40;20487;-55
2021/05/21 12:01:52;;;;;;;11.63;11.13;;;24.80;71.50;;;;;;3545189;40;20944;-54
2021/05/21 12:04:21;;;;;;;11.83;11.33;;;24.80;71.50;;;;;;3544435;40;20577;-55
2021/05/21 12:06:49;;;;;;;11.10;10.70;;;24.80;71.50;;;;;;3544581;40;20487;-55
2021/05/21 12:09:18;;;;;;;11.57;11.07;;;24.80;71.60;;;;;;3543726;40;21154;-55
2021/05/21 12:11:46;;;;;;;11.50;11.00;;;24.80;71.60;;;;;;3545557;40;20491;-53
2021/05/21 12:14:14;;;;;;;11.60;11.20;;;24.80;71.60;;;;;;3544306;40;20521;-53
2021/05/21 12:16:43;;;;;;;11.90;11.30;;;24.80;71.70;;;;;;3543213;40;20483;-55
2021/05/21 12:19:11;;;;;;;11.87;11.37;;;24.80;71.60;;;;;;3547564;40;20494;-54
2021/05/21 12:21:39;;;;;;;11.60;11.10;;;24.80;71.70;;;;;;3544980;40;20491;-52
2021/05/21 12:24:08;;;;;;;11.50;11.10;;;24.80;71.70;;;;;;3547365;40;20502;-52
2021/05/21 12:26:36;;;;;;;11.37;10.97;;;24.80;71.90;;;;;;3546443;40;20482;-52
2021/05/21 12:29:07;;;;;;;11.30;10.90;;;24.80;71.80;;;;;;3545691;40;20475;-54
2021/05/21 12:31:36;;;;;;;11.37;10.97;;;24.80;71.80;;;;;;3546784;40;20495;-56
2021/05/21 12:34:05;;;;;;;11.47;10.93;;;24.80;71.80;;;;;;3549067;40;20730;-56
2021/05/21 12:36:34;;;;;;;11.10;10.60;;;24.80;71.80;;;;;;3547660;40;20486;-56
2021/05/21 12:39:05;;;;;;;11.00;10.50;;;24.70;71.70;;;;;;3544352;40;20947;-54